Helmville, Montana
Current Conditions -  °F | °C
As of 1:53 PM on Friday 19 Dec 2014 (Local Time) from KHLN Reporting Station
Broken Clouds Broken Clouds  
Wind Chill: 34°   Ceiling: 11000
Heat Index: 38°   Visibility: 10mi
Dew Point: 27°   Wind: 5mph
Humidity: 65%   Direction: 330°NNW
Pressure: 29.87"   Gusts: NA
Location:  46.87°N, 112.96°W
Report Text: KHLN 192053Z 33004KT 10SM BKN110 03/M03 A2987 RMK AO2 SLP158 T00331028 56021
Loading
Personal Weather Stations






























Interactive Weather Map New forecast layout! Learn more

10-Day Weather Forecast

Advertisements
Track Severe Weather on mobile